createdAt,value
2023-03-03T00:01:37.525Z,12.70
2023-03-03T00:04:05.997Z,11.50
2023-03-03T00:06:34.536Z,12.00
2023-03-03T00:09:02.936Z,14.10
2023-03-03T00:11:31.352Z,13.50
2023-03-03T00:13:59.912Z,13.40
2023-03-03T00:16:33.761Z,13.17
2023-03-03T00:19:02.429Z,13.87
2023-03-03T00:21:33.413Z,13.43
2023-03-03T00:24:24.763Z,13.40
2023-03-03T00:26:56.078Z,15.20
2023-03-03T00:29:35.868Z,14.03
2023-03-03T00:32:27.085Z,13.67
2023-03-03T00:34:58.336Z,14.90
2023-03-03T00:37:35.763Z,16.23
2023-03-03T00:40:25.072Z,15.33
2023-03-03T00:42:55.815Z,16.70
2023-03-03T00:45:33.112Z,15.63
2023-03-03T00:48:27.665Z,15.50
2023-03-03T00:51:01.583Z,16.13
2023-03-03T00:53:31.896Z,15.90
2023-03-03T00:56:00.266Z,18.37
2023-03-03T00:58:29.703Z,17.20
2023-03-03T01:00:58.895Z,16.30
2023-03-03T01:03:38.114Z,17.53
2023-03-03T01:06:07.064Z,17.23
2023-03-03T01:08:35.515Z,18.57
2023-03-03T01:11:10.080Z,18.33
2023-03-03T01:13:41.922Z,19.63
2023-03-03T01:16:11.941Z,19.33
2023-03-03T01:18:42.696Z,18.10
2023-03-03T01:21:11.760Z,18.50
2023-03-03T01:23:41.467Z,19.37
2023-03-03T01:26:10.018Z,20.10
2023-03-03T01:28:38.380Z,20.03
2023-03-03T01:31:07.737Z,20.73
2023-03-03T01:33:37.759Z,20.87
2023-03-03T01:36:09.372Z,20.80
2023-03-03T01:38:38.207Z,20.30
2023-03-03T01:41:07.327Z,17.70
2023-03-03T01:43:35.785Z,18.60
2023-03-03T01:46:45.840Z,20.20
2023-03-03T01:49:17.624Z,19.57
2023-03-03T01:51:52.362Z,20.20
2023-03-03T01:54:27.784Z,20.43
2023-03-03T01:57:01.157Z,21.57
2023-03-03T01:59:33.173Z,20.47
2023-03-03T02:02:01.628Z,21.03
2023-03-03T02:04:30.579Z,20.80
2023-03-03T02:07:06.997Z,20.30
2023-03-03T02:09:44.916Z,23.23
2023-03-03T02:12:17.684Z,21.83
2023-03-03T02:14:46.901Z,21.43
2023-03-03T02:17:15.450Z,22.13
2023-03-03T02:19:54.164Z,20.90
2023-03-03T02:22:36.237Z,21.90
2023-03-03T02:25:09.805Z,21.67
2023-03-03T02:27:40.053Z,22.00
2023-03-03T02:30:15.745Z,21.80
2023-03-03T02:32:44.374Z,21.67
2023-03-03T02:35:39.215Z,21.80
2023-03-03T02:38:20.908Z,21.93
2023-03-03T02:41:01.913Z,23.20
2023-03-03T02:43:38.720Z,23.20
2023-03-03T02:46:07.199Z,22.70
2023-03-03T02:48:35.787Z,22.37
2023-03-03T02:51:04.226Z,22.70
2023-03-03T02:53:32.632Z,21.50
2023-03-03T02:56:01.040Z,22.90
2023-03-03T02:58:29.461Z,23.07
2023-03-03T03:00:59.282Z,22.60
2023-03-03T03:03:28.511Z,22.47
2023-03-03T03:05:56.892Z,23.93
2023-03-03T03:08:27.000Z,24.53
2023-03-03T03:10:56.954Z,23.90
2023-03-03T03:13:27.004Z,25.73
2023-03-03T03:15:55.605Z,22.43
2023-03-03T03:18:25.384Z,25.20
2023-03-03T03:20:56.439Z,23.00
2023-03-03T03:23:24.880Z,25.00
2023-03-03T03:25:53.277Z,26.60
2023-03-03T03:28:28.536Z,25.67
2023-03-03T03:30:57.313Z,24.90
2023-03-03T03:33:28.269Z,23.93
2023-03-03T03:35:58.308Z,25.63
2023-03-03T03:38:29.747Z,26.13
2023-03-03T03:40:58.426Z,26.10
2023-03-03T03:43:28.675Z,25.50
2023-03-03T03:45:57.391Z,28.63
2023-03-03T03:48:28.515Z,28.10
2023-03-03T03:50:57.599Z,27.47
2023-03-03T03:53:28.341Z,28.37
2023-03-03T03:55:56.845Z,27.30
2023-03-03T03:58:25.429Z,24.87
2023-03-03T04:01:04.710Z,27.20
2023-03-03T04:03:35.838Z,26.20
2023-03-03T04:06:07.601Z,27.67
2023-03-03T04:08:36.345Z,29.20
2023-03-03T04:11:05.544Z,26.77
2023-03-03T04:13:35.344Z,27.70
2023-03-03T04:16:07.494Z,25.87
2023-03-03T04:18:38.271Z,27.90
2023-03-03T04:21:07.198Z,28.23
2023-03-03T04:23:35.711Z,30.00
2023-03-03T04:26:05.010Z,27.53
2023-03-03T04:28:33.764Z,27.50
2023-03-03T04:31:03.235Z,29.10
2023-03-03T04:33:33.088Z,30.20
2023-03-03T04:36:04.671Z,30.83
2023-03-03T04:38:33.093Z,29.13
2023-03-03T04:41:01.742Z,28.40
2023-03-03T04:43:34.871Z,28.53
2023-03-03T04:46:03.930Z,29.00
2023-03-03T04:48:32.996Z,27.70
2023-03-03T04:51:01.399Z,29.97
2023-03-03T04:53:31.459Z,29.80
2023-03-03T04:56:00.045Z,29.80
2023-03-03T04:58:28.465Z,30.07
2023-03-03T05:00:58.760Z,30.30
2023-03-03T05:03:29.750Z,30.33
2023-03-03T05:05:58.158Z,30.33
2023-03-03T05:08:26.617Z,28.77
2023-03-03T05:10:56.726Z,30.37
2023-03-03T05:13:25.108Z,31.87
2023-03-03T05:15:55.490Z,32.93
2023-03-03T05:18:25.273Z,33.37
2023-03-03T05:20:55.415Z,32.40
2023-03-03T05:23:24.540Z,29.10
2023-03-03T05:25:52.965Z,29.80
2023-03-03T05:28:22.824Z,33.70
2023-03-03T05:30:51.290Z,32.83
2023-03-03T05:33:19.892Z,33.90
2023-03-03T05:35:48.636Z,31.20
2023-03-03T05:38:17.256Z,28.80
2023-03-03T05:40:45.870Z,34.50
2023-03-03T05:43:14.448Z,34.77
2023-03-03T05:45:44.353Z,33.30
2023-03-03T05:48:12.788Z,35.43
2023-03-03T05:50:41.171Z,33.30
2023-03-03T05:53:09.649Z,33.60
2023-03-03T05:55:38.122Z,32.53
2023-03-03T05:58:06.550Z,33.47
2023-03-03T06:00:34.994Z,32.47
2023-03-03T06:03:05.008Z,32.63
2023-03-03T06:05:33.496Z,33.80
2023-03-03T06:08:01.968Z,37.60
2023-03-03T06:10:30.338Z,34.30
2023-03-03T06:13:01.421Z,35.37
2023-03-03T06:15:30.032Z,33.90
2023-03-03T06:17:58.724Z,35.00
2023-03-03T06:20:28.678Z,36.30
2023-03-03T06:22:57.160Z,36.77
2023-03-03T06:25:25.740Z,31.43
2023-03-03T06:27:54.258Z,33.70
2023-03-03T06:30:22.923Z,35.73
2023-03-03T06:32:51.330Z,32.10
2023-03-03T06:35:19.883Z,31.87
2023-03-03T06:37:50.930Z,35.10
2023-03-03T06:40:19.731Z,32.60
2023-03-03T06:42:48.314Z,31.93
2023-03-03T06:45:16.904Z,34.10
2023-03-03T06:47:45.423Z,34.17
2023-03-03T06:50:14.671Z,29.67
2023-03-03T06:52:43.109Z,31.77
2023-03-03T06:55:24.167Z,32.50
2023-03-03T06:57:55.870Z,32.80
2023-03-03T07:00:30.853Z,32.13
2023-03-03T07:03:03.310Z,30.73
2023-03-03T07:05:33.181Z,27.90
2023-03-03T07:08:01.725Z,30.30
2023-03-03T07:10:32.722Z,31.13
2023-03-03T07:13:18.956Z,29.27
2023-03-03T07:15:49.207Z,29.83
2023-03-03T07:18:39.313Z,30.47
2023-03-03T07:21:21.182Z,30.67
2023-03-03T07:23:52.784Z,29.80
2023-03-03T07:26:30.740Z,31.93
2023-03-03T07:29:02.563Z,29.50
2023-03-03T07:31:38.573Z,29.33
2023-03-03T07:34:22.040Z,32.33
2023-03-03T07:36:51.962Z,29.23
2023-03-03T07:39:35.153Z,33.83
2023-03-03T07:42:29.518Z,30.27
2023-03-03T07:45:28.144Z,29.47
2023-03-03T07:48:10.926Z,29.20
2023-03-03T07:50:39.448Z,29.47
2023-03-03T07:53:23.389Z,27.20
2023-03-03T07:55:51.788Z,27.10
2023-03-03T07:58:30.541Z,29.00
2023-03-03T08:01:34.713Z,28.87
2023-03-03T08:04:04.510Z,29.17
2023-03-03T08:06:43.698Z,26.77
2023-03-03T08:09:48.190Z,26.17
2023-03-03T08:12:41.927Z,29.10
2023-03-03T08:15:23.758Z,26.97
2023-03-03T08:17:55.037Z,25.87
2023-03-03T08:20:47.681Z,29.17
2023-03-03T08:23:18.130Z,27.37
2023-03-03T08:25:48.425Z,28.17
2023-03-03T08:28:17.497Z,27.47
2023-03-03T08:30:48.026Z,31.13
2023-03-03T08:33:16.959Z,28.17
2023-03-03T08:35:45.612Z,25.60
2023-03-03T08:38:17.087Z,26.93
2023-03-03T08:40:45.901Z,27.43
2023-03-03T08:43:17.365Z,26.80
2023-03-03T08:45:48.951Z,25.50
2023-03-03T08:48:17.972Z,27.50
2023-03-03T08:50:47.362Z,27.60
2023-03-03T08:53:16.973Z,26.60
2023-03-03T08:55:45.798Z,26.70
2023-03-03T08:58:14.666Z,26.00
2023-03-03T09:00:43.764Z,24.90
2023-03-03T09:03:13.758Z,24.27
2023-03-03T09:05:42.836Z,25.10
2023-03-03T09:08:11.584Z,23.90
2023-03-03T09:10:40.387Z,24.53
2023-03-03T09:13:15.720Z,24.37
2023-03-03T09:15:44.252Z,23.77
2023-03-03T09:18:18.065Z,23.40
2023-03-03T09:20:48.192Z,24.40
2023-03-03T09:23:37.637Z,24.43
2023-03-03T09:26:30.731Z,22.97
2023-03-03T09:29:19.405Z,23.03
2023-03-03T09:31:51.709Z,23.10
2023-03-03T09:34:27.915Z,22.73
2023-03-03T09:37:00.153Z,19.97
2023-03-03T09:39:32.031Z,22.90
2023-03-03T09:42:52.115Z,19.70
2023-03-03T09:45:36.839Z,21.70
2023-03-03T09:48:41.394Z,21.60
2023-03-03T09:51:32.750Z,26.47
2023-03-03T09:54:31.047Z,18.63
2023-03-03T09:57:11.645Z,20.83
2023-03-03T09:59:55.654Z,20.27
2023-03-03T10:02:40.001Z,18.50
2023-03-03T10:05:21.939Z,19.50
2023-03-03T10:08:04.957Z,18.93
2023-03-03T10:10:56.760Z,17.43
2023-03-03T10:13:43.513Z,16.60
2023-03-03T10:16:32.521Z,17.87
2023-03-03T10:19:05.853Z,16.73
2023-03-03T10:21:41.166Z,16.57
2023-03-03T10:24:28.941Z,17.30
2023-03-03T10:27:26.083Z,14.50
2023-03-03T10:30:05.684Z,17.60
2023-03-03T10:32:48.710Z,16.77
2023-03-03T10:36:07.304Z,17.03
2023-03-03T10:38:56.499Z,15.93
2023-03-03T10:41:45.335Z,15.73
2023-03-03T10:44:37.465Z,16.37
2023-03-03T10:47:35.771Z,14.83
2023-03-03T10:50:17.616Z,14.60
2023-03-03T10:53:04.533Z,15.43
2023-03-03T10:56:10.848Z,14.57
2023-03-03T10:59:07.056Z,14.17
2023-03-03T11:01:50.871Z,14.17
2023-03-03T11:04:56.121Z,13.70
2023-03-03T11:07:33.363Z,15.90
2023-03-03T11:10:19.444Z,15.03
2023-03-03T11:13:09.376Z,15.73
2023-03-03T11:16:07.086Z,13.70
2023-03-03T11:19:03.662Z,14.43
2023-03-03T11:21:38.905Z,14.13
2023-03-03T11:24:36.206Z,13.63
2023-03-03T11:27:23.909Z,13.40
2023-03-03T11:30:23.828Z,13.87
2023-03-03T11:33:05.247Z,12.70
2023-03-03T11:35:44.111Z,13.47
2023-03-03T11:38:37.786Z,14.00
2023-03-03T11:41:18.345Z,14.40
2023-03-03T11:43:50.777Z,14.87
2023-03-03T11:46:26.227Z,14.57
2023-03-03T11:49:03.389Z,13.37
2023-03-03T11:51:48.426Z,13.17
2023-03-03T11:54:24.157Z,13.47
2023-03-03T11:56:57.301Z,13.00
2023-03-03T11:59:43.658Z,15.37
2023-03-03T12:02:44.003Z,14.90
2023-03-03T12:05:29.295Z,12.70
2023-03-03T12:08:09.786Z,13.40
2023-03-03T12:10:44.781Z,12.97
2023-03-03T12:13:22.999Z,14.70
2023-03-03T12:15:58.831Z,13.27
2023-03-03T12:18:55.369Z,14.97
2023-03-03T12:21:45.081Z,12.40
2023-03-03T12:24:33.138Z,12.27
2023-03-03T12:27:16.497Z,14.40
2023-03-03T12:29:57.875Z,11.63
2023-03-03T12:32:48.018Z,13.13
2023-03-03T12:35:28.046Z,19.60
2023-03-03T12:38:07.161Z,14.60
2023-03-03T12:40:38.270Z,10.90
2023-03-03T12:43:29.152Z,11.63
2023-03-03T12:46:07.389Z,12.13
2023-03-03T12:48:43.040Z,12.27
2023-03-03T12:51:28.285Z,12.27
2023-03-03T12:54:39.548Z,12.53
2023-03-03T12:57:22.293Z,11.90
2023-03-03T13:00:13.417Z,18.03
2023-03-03T13:02:50.469Z,32.37
2023-03-03T13:05:26.027Z,33.93
2023-03-03T13:08:19.387Z,34.63
2023-03-03T13:10:58.401Z,25.73
2023-03-03T13:13:32.874Z,24.10
2023-03-03T13:16:06.827Z,24.67
2023-03-03T13:18:51.024Z,25.33
2023-03-03T13:21:26.898Z,24.17
2023-03-03T13:24:05.095Z,25.17
2023-03-03T13:26:42.542Z,20.07
2023-03-03T13:29:22.191Z,16.60
2023-03-03T13:31:56.530Z,15.60
2023-03-03T13:34:42.920Z,14.67
2023-03-03T13:37:19.777Z,14.20
2023-03-03T13:39:58.404Z,12.50
2023-03-03T13:42:35.912Z,11.40
2023-03-03T13:45:14.456Z,13.00
2023-03-03T13:47:54.967Z,15.53
2023-03-03T13:50:33.293Z,13.00
2023-03-03T13:53:26.968Z,12.60
2023-03-03T13:56:05.697Z,10.77
2023-03-03T13:58:43.893Z,10.33
2023-03-03T14:01:22.929Z,12.30
2023-03-03T14:04:15.512Z,11.07
2023-03-03T14:06:55.874Z,10.93
2023-03-03T14:09:54.193Z,9.87
2023-03-03T14:12:31.021Z,9.00
2023-03-03T14:15:11.169Z,9.77
2023-03-03T14:17:55.943Z,9.13
2023-03-03T14:20:29.479Z,9.73
2023-03-03T14:23:01.190Z,9.57
2023-03-03T14:25:54.403Z,9.50
2023-03-03T14:28:24.995Z,8.63
2023-03-03T14:30:57.691Z,8.40
2023-03-03T14:33:32.381Z,7.90
2023-03-03T14:36:16.243Z,8.43
2023-03-03T14:38:51.777Z,9.63
2023-03-03T14:41:38.065Z,8.70
2023-03-03T14:44:29.482Z,8.70
2023-03-03T14:47:24.831Z,9.97
2023-03-03T14:49:54.701Z,9.20
2023-03-03T14:52:28.767Z,8.13
2023-03-03T14:55:00.443Z,8.60
2023-03-03T14:57:46.576Z,9.30
2023-03-03T15:00:36.411Z,8.80
2023-03-03T15:03:23.652Z,9.50
2023-03-03T15:05:53.788Z,7.97
2023-03-03T15:08:33.272Z,8.73
2023-03-03T15:11:19.502Z,8.07
2023-03-03T15:13:48.115Z,8.53
2023-03-03T15:16:20.435Z,9.03
2023-03-03T15:19:23.434Z,8.27
2023-03-03T15:22:02.885Z,8.60
2023-03-03T15:24:41.546Z,8.37
2023-03-03T15:27:15.618Z,7.33
2023-03-03T15:29:56.937Z,7.57
2023-03-03T15:32:31.281Z,7.10
2023-03-03T15:35:13.466Z,7.70
2023-03-03T15:37:51.470Z,7.57
2023-03-03T15:40:27.562Z,7.77
2023-03-03T15:43:12.458Z,7.07
2023-03-03T15:45:52.617Z,7.50
2023-03-03T15:48:42.564Z,6.43
2023-03-03T15:51:28.180Z,7.20
2023-03-03T15:54:23.973Z,7.50
2023-03-03T15:56:58.416Z,7.23
2023-03-03T16:00:02.324Z,7.30
2023-03-03T16:02:50.994Z,7.53
2023-03-03T16:05:25.675Z,6.17
2023-03-03T16:08:04.765Z,8.00
2023-03-03T16:10:43.169Z,6.70
2023-03-03T16:13:33.715Z,5.70
2023-03-03T16:16:17.444Z,7.93
2023-03-03T16:19:03.333Z,5.80
2023-03-03T16:22:03.210Z,6.93
2023-03-03T16:24:44.134Z,6.00
2023-03-03T16:27:21.617Z,7.10
2023-03-03T16:30:28.525Z,6.50
2023-03-03T16:33:12.937Z,5.83
2023-03-03T16:35:47.545Z,6.03
2023-03-03T16:38:23.715Z,6.57
2023-03-03T16:40:57.782Z,6.07
2023-03-03T16:43:34.313Z,5.30
2023-03-03T16:46:13.083Z,6.20
2023-03-03T16:48:53.106Z,6.60
2023-03-03T16:51:38.795Z,4.80
2023-03-03T16:54:11.208Z,5.93
2023-03-03T16:56:45.720Z,6.00
2023-03-03T16:59:40.465Z,5.70
2023-03-03T17:02:33.823Z,6.43
2023-03-03T17:05:09.785Z,6.70
2023-03-03T17:07:46.364Z,6.30
2023-03-03T17:10:26.967Z,5.40
2023-03-03T17:13:47.931Z,6.47
2023-03-03T17:16:23.658Z,7.57
2023-03-03T17:19:11.008Z,6.57
2023-03-03T17:21:58.543Z,6.60
2023-03-03T17:24:39.692Z,6.00
2023-03-03T17:27:20.347Z,5.83
2023-03-03T17:29:57.879Z,5.03
2023-03-03T17:32:50.260Z,6.10
2023-03-03T17:35:53.775Z,6.80
2023-03-03T17:38:36.316Z,6.90
2023-03-03T17:41:11.148Z,5.93
2023-03-03T17:43:52.891Z,6.37
2023-03-03T17:46:37.281Z,7.20
2023-03-03T17:49:42.626Z,6.60
2023-03-03T17:52:59.100Z,7.10
2023-03-03T17:56:02.948Z,6.33
2023-03-03T17:58:56.114Z,6.70
2023-03-03T18:01:46.481Z,6.70
2023-03-03T18:04:42.453Z,6.10
2023-03-03T18:07:43.288Z,7.47
2023-03-03T18:10:56.959Z,6.23
2023-03-03T18:13:51.973Z,6.80
2023-03-03T18:16:35.779Z,5.37
2023-03-03T18:19:46.552Z,6.43
2023-03-03T18:22:20.621Z,5.97
2023-03-03T18:25:03.469Z,6.50
2023-03-03T18:27:37.771Z,6.93
2023-03-03T18:30:24.926Z,6.17
2023-03-03T18:33:12.755Z,8.17
2023-03-03T18:35:43.991Z,6.70
2023-03-03T18:38:34.987Z,7.00
2023-03-03T18:41:06.554Z,6.30
2023-03-03T18:44:01.124Z,6.60
2023-03-03T18:46:56.421Z,7.83
2023-03-03T18:49:59.365Z,7.33
2023-03-03T18:52:31.164Z,6.73
2023-03-03T18:55:26.038Z,7.20
2023-03-03T18:58:44.290Z,6.90
2023-03-03T19:01:44.910Z,6.80
2023-03-03T19:04:25.223Z,7.47
2023-03-03T19:07:18.892Z,7.37
2023-03-03T19:09:58.120Z,8.43
2023-03-03T19:12:49.023Z,9.07
2023-03-03T19:15:59.802Z,7.93
2023-03-03T19:18:29.910Z,8.43
2023-03-03T19:21:02.512Z,8.60
2023-03-03T19:23:51.171Z,8.07
2023-03-03T19:26:50.296Z,7.53
2023-03-03T19:29:53.611Z,8.13
2023-03-03T19:33:10.615Z,8.60
2023-03-03T19:35:51.246Z,8.33
2023-03-03T19:38:34.934Z,8.07
2023-03-03T19:41:19.548Z,8.60
2023-03-03T19:43:59.790Z,8.23
2023-03-03T19:46:55.056Z,8.77
2023-03-03T19:49:42.106Z,8.13
2023-03-03T19:52:21.376Z,7.67
2023-03-03T19:55:03.999Z,8.90
2023-03-03T19:57:48.939Z,6.83
2023-03-03T20:00:25.971Z,8.13
2023-03-03T20:03:27.226Z,7.50
2023-03-03T20:06:06.918Z,8.73
2023-03-03T20:08:42.967Z,6.60
2023-03-03T20:11:25.103Z,7.93
2023-03-03T20:14:02.069Z,8.57
2023-03-03T20:16:40.816Z,9.20
2023-03-03T20:19:25.215Z,7.63
2023-03-03T20:22:08.205Z,8.13
2023-03-03T20:25:05.254Z,7.10
2023-03-03T20:27:45.921Z,7.63
2023-03-03T20:30:31.027Z,7.27
2023-03-03T20:33:17.620Z,8.13
2023-03-03T20:35:59.769Z,8.20
2023-03-03T20:38:41.183Z,9.13
2023-03-03T20:41:19.023Z,8.50
2023-03-03T20:44:03.637Z,8.30
2023-03-03T20:46:44.668Z,9.10
2023-03-03T20:49:38.210Z,9.23
2023-03-03T20:52:13.929Z,7.63
2023-03-03T20:54:53.836Z,7.30
2023-03-03T20:57:33.977Z,8.50
2023-03-03T21:00:09.373Z,8.70
2023-03-03T21:02:43.635Z,9.67
2023-03-03T21:05:16.307Z,9.10
2023-03-03T21:07:56.788Z,10.83
2023-03-03T21:10:30.059Z,9.83
2023-03-03T21:13:00.516Z,9.20
2023-03-03T21:15:32.212Z,10.17
2023-03-03T21:18:01.310Z,8.90
2023-03-03T21:20:32.807Z,8.57
2023-03-03T21:23:03.245Z,8.90
2023-03-03T21:25:49.298Z,8.27
2023-03-03T21:28:21.279Z,10.67
2023-03-03T21:31:18.034Z,9.37
2023-03-03T21:33:56.051Z,8.93
2023-03-03T21:36:26.034Z,8.87
2023-03-03T21:38:56.576Z,10.07
2023-03-03T21:41:26.620Z,10.13
2023-03-03T21:43:55.825Z,8.30
2023-03-03T21:46:26.143Z,8.80
2023-03-03T21:48:54.585Z,9.27
2023-03-03T21:51:24.443Z,9.07
2023-03-03T21:53:52.962Z,8.80
2023-03-03T21:56:21.351Z,10.30
2023-03-03T21:58:51.194Z,8.60
2023-03-03T22:01:19.663Z,8.57
2023-03-03T22:03:48.714Z,9.73
2023-03-03T22:06:17.967Z,9.60
2023-03-03T22:08:46.371Z,9.87
2023-03-03T22:11:15.633Z,8.43
2023-03-03T22:13:44.340Z,10.27
2023-03-03T22:16:14.190Z,9.47
2023-03-03T22:18:42.753Z,10.27
2023-03-03T22:21:11.074Z,10.77
2023-03-03T22:23:39.497Z,9.40
2023-03-03T22:26:07.987Z,8.93
2023-03-03T22:28:36.499Z,10.80
2023-03-03T22:31:05.224Z,9.20
2023-03-03T22:33:35.034Z,11.03
2023-03-03T22:36:03.411Z,9.80
2023-03-03T22:38:31.836Z,11.20
2023-03-03T22:41:00.383Z,11.03
2023-03-03T22:43:29.810Z,11.07
2023-03-03T22:45:58.946Z,10.30
2023-03-03T22:48:29.163Z,10.83
2023-03-03T22:50:59.104Z,11.67
2023-03-03T22:53:27.933Z,11.90
2023-03-03T22:55:56.552Z,11.60
2023-03-03T22:58:26.218Z,10.23
2023-03-03T23:00:55.436Z,11.40
2023-03-03T23:03:24.541Z,10.93
2023-03-03T23:05:53.174Z,10.43
2023-03-03T23:08:23.065Z,11.20
2023-03-03T23:10:51.461Z,10.40
2023-03-03T23:13:19.852Z,11.90
2023-03-03T23:15:48.281Z,12.10
2023-03-03T23:18:16.801Z,11.43
2023-03-03T23:20:46.098Z,11.40
2023-03-03T23:23:14.807Z,11.20
2023-03-03T23:25:44.663Z,11.20
2023-03-03T23:28:15.576Z,12.40
2023-03-03T23:30:45.036Z,12.43
2023-03-03T23:33:13.674Z,12.73
2023-03-03T23:35:42.576Z,12.07
2023-03-03T23:38:15.399Z,11.83
2023-03-03T23:40:46.646Z,11.13
2023-03-03T23:43:15.364Z,10.20
2023-03-03T23:45:43.700Z,11.20
2023-03-03T23:48:12.572Z,11.67
2023-03-03T23:50:41.053Z,11.33
2023-03-03T23:53:09.666Z,12.23
2023-03-03T23:55:38.063Z,12.40
2023-03-03T23:58:08.080Z,13.03
